Time;durP1;ratioP1;P1;durP2;ratioP2;P2;SDS_P1;SDS_P2;PMS_P1;PMS_P2;Temp;Humidity;BMP_temperature;BMP_pressure;BME280_temperature;BME280_humidity;BME280_pressure;Samples;Min_cycle;Max_cycle;Signal;HPM_P1;HPM_P2
2021/01/16 00:00:52;;;;;;;1.55;0.82;;;25.00;49.20;;;;;;5071759;28;20036;-61
2021/01/16 00:03:20;;;;;;;91.47;83.95;;;25.10;47.60;;;;;;5071461;28;20112;-62
2021/01/16 00:05:47;;;;;;;3.03;2.75;;;25.10;49.00;;;;;;5072176;28;20071;-66
2021/01/16 00:08:17;;;;;;;11.10;9.07;;;25.10;44.40;;;;;;5067083;28;20449;-64
2021/01/16 00:10:50;;;;;;;12.75;9.43;;;25.20;46.60;;;;;;5071596;28;20016;-63
2021/01/16 00:13:27;;;;;;;12.57;7.53;;;25.10;38.80;;;;;;5070729;28;20025;-64
2021/01/16 00:15:56;;;;;;;41.40;37.33;;;25.20;37.40;;;;;;5072082;28;20382;-62
2021/01/16 00:18:25;;;;;;;16.25;14.60;;;25.20;35.90;;;;;;5066355;28;20036;-65
2021/01/16 00:20:54;;;;;;;10.02;7.32;;;25.20;34.40;;;;;;5071568;28;20052;-65
2021/01/16 00:23:28;;;;;;;17.42;9.68;;;25.30;36.30;;;;;;5070973;28;20033;-65
2021/01/16 00:25:57;;;;;;;7.53;4.88;;;25.20;34.70;;;;;;5071587;28;20055;-65
2021/01/16 00:28:31;;;;;;;1.70;1.00;;;25.20;33.50;;;;;;5066029;28;20040;-61
2021/01/16 00:30:59;;;;;;;10.52;7.40;;;25.20;29.00;;;;;;5071702;28;20040;-59
2021/01/16 00:33:29;;;;;;;2.17;1.73;;;25.20;33.20;;;;;;5070436;28;20726;-58
2021/01/16 00:35:58;;;;;;;8.40;4.07;;;25.40;29.30;;;;;;5071442;28;20120;-61
2021/01/16 00:38:26;;;;;;;3.67;1.45;;;25.60;33.40;;;;;;5066692;28;20068;-63
2021/01/16 00:40:54;;;;;;;11.38;8.10;;;25.50;33.00;;;;;;5071355;28;20332;-58
2021/01/16 00:43:22;;;;;;;7.72;4.93;;;25.40;34.30;;;;;;5069885;28;20032;-65
2021/01/16 00:45:51;;;;;;;8.30;4.68;;;25.20;32.30;;;;;;5070639;28;20120;-64
2021/01/16 00:48:21;;;;;;;8.40;5.20;;;25.30;34.90;;;;;;5066465;28;20032;-59
2021/01/16 00:50:50;;;;;;;9.80;3.85;;;25.40;29.80;;;;;;5070003;28;20041;-58
2021/01/16 00:53:18;;;;;;;5.80;2.80;;;25.80;33.20;;;;;;5068980;28;20448;-61
2021/01/16 00:55:45;;;;;;;10.23;8.13;;;25.80;28.60;;;;;;5071159;28;20497;-65
2021/01/16 00:58:16;;;;;;;10.55;6.57;;;26.00;36.10;;;;;;5064082;28;20036;-63
2021/01/16 01:00:48;;;;;;;11.38;8.60;;;26.00;34.40;;;;;;5071196;28;20332;-65
2021/01/16 01:03:20;;;;;;;8.70;7.18;;;26.00;36.20;;;;;;5070088;28;20487;-65
2021/01/16 01:05:48;;;;;;;6.63;6.03;;;26.00;35.60;;;;;;5069435;28;20133;-64
2021/01/16 01:08:16;;;;;;;8.20;6.38;;;26.00;35.90;;;;;;5065753;28;20487;-65
2021/01/16 01:10:46;;;;;;;9.20;6.00;;;26.10;37.30;;;;;;5071298;28;20032;-66
2021/01/16 01:13:14;;;;;;;7.65;5.80;;;26.10;36.80;;;;;;5069546;28;20459;-63
2021/01/16 01:15:42;;;;;;;12.35;6.45;;;26.10;36.00;;;;;;5070615;28;20028;-64
2021/01/16 01:18:10;;;;;;;9.48;6.78;;;26.10;37.20;;;;;;5066020;28;20047;-63
2021/01/16 01:20:37;;;;;;;8.48;4.95;;;26.20;37.50;;;;;;5070332;28;20040;-66
2021/01/16 01:23:04;;;;;;;5.50;4.53;;;26.30;35.90;;;;;;5070661;28;20036;-64
2021/01/16 01:25:33;;;;;;;6.75;5.40;;;26.40;37.00;;;;;;5070114;28;20035;-63
2021/01/16 01:28:02;;;;;;;8.98;5.95;;;26.50;38.60;;;;;;5062153;28;20043;-64
2021/01/16 01:30:31;;;;;;;6.60;5.00;;;26.50;39.80;;;;;;5070702;28;20451;-64
2021/01/16 01:32:59;;;;;;;6.38;4.30;;;26.50;36.90;;;;;;5070880;28;20039;-64
2021/01/16 01:35:28;;;;;;;5.88;4.40;;;26.60;36.80;;;;;;5069973;28;20069;-64
2021/01/16 01:37:57;;;;;;;4.35;3.95;;;26.60;37.30;;;;;;5065841;28;20036;-63
2021/01/16 01:40:28;;;;;;;17.42;4.28;;;26.70;37.70;;;;;;5070629;28;20027;-64
2021/01/16 01:42:57;;;;;;;4.97;4.40;;;26.70;36.10;;;;;;5070380;28;20044;-58
2021/01/16 01:45:26;;;;;;;8.60;4.63;;;26.80;38.20;;;;;;5069223;28;20028;-62
2021/01/16 01:47:57;;;;;;;8.35;4.75;;;26.80;39.00;;;;;;5064932;28;20056;-63
2021/01/16 01:50:25;;;;;;;7.55;4.43;;;26.80;38.80;;;;;;5070367;28;20023;-64
2021/01/16 01:52:53;;;;;;;4.38;3.75;;;26.90;37.70;;;;;;5067219;28;20656;-62
2021/01/16 01:55:21;;;;;;;6.38;3.88;;;27.00;38.30;;;;;;5068937;28;20055;-63
2021/01/16 01:57:54;;;;;;;6.00;3.15;;;27.10;37.50;;;;;;5068502;28;20036;-64
2021/01/16 02:00:23;;;;;;;9.77;4.00;;;27.10;38.90;;;;;;5070489;28;20025;-64
2021/01/16 02:02:53;;;;;;;6.90;4.30;;;27.10;35.60;;;;;;5070234;28;20426;-60
2021/01/16 02:05:20;;;;;;;4.85;4.05;;;27.10;40.50;;;;;;5069193;28;20057;-61
2021/01/16 02:07:48;;;;;;;7.82;2.70;;;27.10;37.50;;;;;;5067478;28;20086;-57
2021/01/16 02:10:22;;;;;;;4.53;3.88;;;27.20;28.80;;;;;;5069409;28;20016;-62
2021/01/16 02:12:52;;;;;;;8.13;3.35;;;27.10;39.10;;;;;;5069672;28;20410;-63
2021/01/16 02:15:29;;;;;;;3.80;2.80;;;27.30;37.60;;;;;;5068973;28;20029;-65
2021/01/16 02:18:06;;;;;;;4.13;2.83;;;27.30;39.20;;;;;;5064636;28;20040;-64
2021/01/16 02:20:37;;;;;;;7.45;3.08;;;27.40;36.00;;;;;;5067698;28;20058;-62
2021/01/16 02:23:13;;;;;;;3.45;2.58;;;27.40;39.30;;;;;;5067896;28;20044;-63
2021/01/16 02:26:11;;;;;;;6.93;2.95;;;27.40;36.90;;;;;;5063320;28;20032;-64
2021/01/16 02:28:47;;;;;;;7.72;2.60;;;27.50;36.40;;;;;;5063290;28;20028;-65
2021/01/16 02:31:16;;;;;;;2.80;2.42;;;27.50;37.40;;;;;;5067050;28;20056;-56
2021/01/16 02:33:45;;;;;;;5.97;2.58;;;27.60;36.90;;;;;;5067450;28;20016;-62
2021/01/16 02:36:24;;;;;;;2.95;1.90;;;27.60;39.40;;;;;;5067789;28;20037;-54
2021/01/16 02:39:28;;;;;;;2.55;2.10;;;27.60;37.50;;;;;;5062925;28;20459;-49
2021/01/16 02:42:19;;;;;;;4.82;2.00;;;27.70;35.60;;;;;;5067491;28;20421;-60
2021/01/16 02:45:10;;;;;;;5.82;1.83;;;27.80;36.20;;;;;;5067830;28;20046;-60
2021/01/16 02:48:15;;;;;;;8.10;3.15;;;27.80;36.00;;;;;;5065824;28;20066;-61
2021/01/16 02:50:50;;;;;;;2.97;1.88;;;27.80;38.30;;;;;;5068558;28;20059;-63
2021/01/16 02:53:23;;;;;;;2.95;2.15;;;27.80;38.80;;;;;;5067192;28;20031;-62
2021/01/16 02:55:51;;;;;;;4.00;2.10;;;27.90;39.00;;;;;;5067930;28;20379;-62
2021/01/16 02:58:19;;;;;;;2.53;1.95;;;27.90;37.40;;;;;;5063593;28;20470;-63
2021/01/16 03:00:47;;;;;;;6.35;2.63;;;27.90;36.50;;;;;;5067251;28;20433;-63
2021/01/16 03:03:15;;;;;;;3.83;2.17;;;28.00;40.00;;;;;;5067981;28;20032;-62
2021/01/16 03:05:42;;;;;;;5.05;2.05;;;28.00;38.30;;;;;;5066515;28;20040;-59
2021/01/16 03:08:10;;;;;;;5.60;2.35;;;28.00;38.30;;;;;;5064999;28;20472;-61
2021/01/16 03:10:38;;;;;;;3.13;2.15;;;28.00;41.00;;;;;;5072424;28;20044;-59
2021/01/16 03:13:06;;;;;;;4.05;2.20;;;28.00;41.40;;;;;;5072781;28;20108;-64
2021/01/16 03:15:34;;;;;;;4.50;1.92;;;28.10;37.70;;;;;;5073160;28;20165;-65
2021/01/16 03:18:01;;;;;;;8.30;2.00;;;28.10;37.20;;;;;;5068096;28;20388;-61
2021/01/16 03:20:31;;;;;;;3.60;2.08;;;28.00;42.10;;;;;;5071769;28;20035;-62
2021/01/16 03:23:02;;;;;;;4.90;1.92;;;28.10;42.50;;;;;;5071829;28;20120;-60
2021/01/16 03:25:32;;;;;;;3.47;1.75;;;28.10;40.10;;;;;;5071313;28;20020;-56
2021/01/16 03:28:00;;;;;;;4.15;1.40;;;28.10;40.00;;;;;;5067739;28;20037;-57
2021/01/16 03:30:28;;;;;;;3.97;1.13;;;28.10;37.60;;;;;;5071882;28;20043;-60
2021/01/16 03:32:55;;;;;;;16.67;2.47;;;28.00;39.30;;;;;;5071857;28;20424;-68
2021/01/16 03:35:25;;;;;;;5.43;1.30;;;28.10;40.10;;;;;;5073264;28;20361;-63
2021/01/16 03:37:55;;;;;;;23.63;1.98;;;28.10;39.10;;;;;;5074694;28;20120;-66
2021/01/16 03:40:24;;;;;;;6.00;1.67;;;28.10;39.00;;;;;;5074505;28;20016;-65
2021/01/16 03:42:51;;;;;;;7.93;1.85;;;28.10;39.30;;;;;;5073998;28;20025;-65
2021/01/16 03:45:21;;;;;;;10.38;1.67;;;28.00;39.20;;;;;;5074198;28;20173;-65
2021/01/16 03:47:49;;;;;;;4.53;0.88;;;28.10;41.00;;;;;;5074027;28;20107;-66
2021/01/16 03:50:17;;;;;;;5.55;1.38;;;28.00;39.80;;;;;;5073774;28;20514;-63
2021/01/16 03:52:45;;;;;;;6.97;0.90;;;28.00;39.20;;;;;;5072900;28;20421;-63
2021/01/16 03:55:12;;;;;;;5.07;1.00;;;28.00;41.20;;;;;;5074385;28;20173;-63
2021/01/16 03:57:40;;;;;;;2.45;0.95;;;28.00;40.90;;;;;;5074033;28;20101;-57
2021/01/16 04:00:10;;;;;;;3.63;0.80;;;27.90;38.10;;;;;;5073409;28;20020;-60
2021/01/16 04:02:38;;;;;;;8.02;1.00;;;28.00;40.10;;;;;;5074283;28;20496;-64
2021/01/16 04:05:06;;;;;;;6.45;0.93;;;28.00;41.50;;;;;;5074276;28;20490;-68
2021/01/16 04:07:34;;;;;;;7.07;0.85;;;28.00;42.00;;;;;;5073954;28;20028;-67
2021/01/16 04:10:01;;;;;;;4.18;0.93;;;28.00;40.50;;;;;;5074246;28;20024;-61
2021/01/16 04:12:29;;;;;;;2.42;0.98;;;28.00;37.10;;;;;;5073674;28;20450;-59
2021/01/16 04:14:57;;;;;;;9.48;0.73;;;27.90;40.00;;;;;;5072476;28;20055;-63
2021/01/16 04:17:24;;;;;;;7.93;1.15;;;27.90;37.50;;;;;;5074039;28;20029;-67
2021/01/16 04:19:52;;;;;;;6.28;0.90;;;28.00;39.80;;;;;;5072812;28;20029;-62
2021/01/16 04:22:19;;;;;;;2.42;1.10;;;27.90;38.20;;;;;;5073695;28;20040;-66
2021/01/16 04:24:46;;;;;;;17.05;13.40;;;27.90;39.80;;;;;;5062229;28;20505;-65
2021/01/16 04:27:14;;;;;;;7.90;5.22;;;27.90;37.20;;;;;;5070145;28;20028;-58
2021/01/16 04:29:41;;;;;;;16.40;10.43;;;27.90;38.30;;;;;;5069188;28;20028;-52
2021/01/16 04:32:09;;;;;;;10.63;7.82;;;27.90;38.90;;;;;;5066803;28;20028;-62
2021/01/16 04:34:36;;;;;;;9.40;7.95;;;28.00;39.20;;;;;;5070353;28;20059;-62
2021/01/16 04:37:03;;;;;;;15.80;14.10;;;28.00;39.80;;;;;;5069817;28;20177;-55
2021/01/16 04:39:31;;;;;;;13.70;10.30;;;28.00;39.90;;;;;;5068868;28;20033;-63
2021/01/16 04:42:00;;;;;;;14.80;7.22;;;28.00;40.60;;;;;;5070386;28;20324;-62
2021/01/16 04:44:28;;;;;;;22.02;10.10;;;28.00;40.10;;;;;;5070100;28;20025;-69
2021/01/16 04:46:58;;;;;;;20.33;15.52;;;28.10;40.90;;;;;;5069435;28;20028;-65
2021/01/16 04:49:26;;;;;;;22.45;17.95;;;28.00;37.40;;;;;;5066861;28;20123;-58
2021/01/16 04:51:54;;;;;;;17.60;12.00;;;28.00;39.40;;;;;;5071514;28;20074;-60
2021/01/16 04:54:23;;;;;;;13.27;6.93;;;28.00;41.00;;;;;;5069782;28;20034;-57
2021/01/16 04:56:51;;;;;;;20.55;8.18;;;28.00;40.70;;;;;;5072565;28;20124;-57
2021/01/16 04:59:19;;;;;;;14.25;7.82;;;28.00;38.80;;;;;;5072144;28;20115;-55
2021/01/16 05:01:47;;;;;;;13.88;8.00;;;28.00;39.80;;;;;;5071788;28;20463;-60
2021/01/16 05:04:24;;;;;;;11.45;7.45;;;27.90;39.60;;;;;;5072812;28;20032;-58
2021/01/16 05:06:52;;;;;;;7.80;4.95;;;27.80;39.20;;;;;;5072522;28;20050;-56
2021/01/16 05:09:21;;;;;;;10.95;4.68;;;27.70;39.80;;;;;;5072236;28;20037;-58
2021/01/16 05:12:20;;;;;;;5.75;2.92;;;27.70;38.90;;;;;;5070922;28;20028;-56
2021/01/16 05:15:04;;;;;;;11.68;6.60;;;27.60;40.20;;;;;;5068343;28;20486;-52
2021/01/16 05:17:41;;;;;;;9.43;4.55;;;27.70;42.90;;;;;;5072411;28;20031;-58
2021/01/16 05:20:09;;;;;;;27.08;5.22;;;27.70;40.80;;;;;;5072621;28;20126;-59
2021/01/16 05:22:37;;;;;;;4.72;3.75;;;27.60;41.80;;;;;;5071915;28;20399;-57
2021/01/16 05:25:07;;;;;;;25.48;4.00;;;27.60;39.90;;;;;;5072463;28;20555;-58
2021/01/16 05:27:37;;;;;;;5.45;2.25;;;27.60;38.10;;;;;;5072182;28;20028;-61
2021/01/16 05:30:09;;;;;;;5.25;1.88;;;27.40;38.30;;;;;;5070573;28;20082;-58
2021/01/16 05:32:37;;;;;;;7.55;1.38;;;27.20;36.40;;;;;;5072125;28;20021;-61
2021/01/16 05:35:22;;;;;;;5.05;1.23;;;26.90;38.60;;;;;;5072428;28;20028;-56
2021/01/16 05:37:50;;;;;;;18.73;0.80;;;26.70;39.80;;;;;;5072118;28;20032;-53
2021/01/16 05:40:19;;;;;;;4.40;1.00;;;26.30;38.10;;;;;;5071841;28;20028;-55
2021/01/16 05:42:47;;;;;;;5.70;0.75;;;26.10;40.00;;;;;;5071769;28;20027;-62
2021/01/16 05:45:16;;;;;;;2.10;0.50;;;26.10;39.30;;;;;;5072107;28;20029;-55
2021/01/16 05:47:45;;;;;;;6.90;1.00;;;26.10;38.30;;;;;;5071639;28;20031;-58
2021/01/16 05:50:13;;;;;;;3.65;0.73;;;26.00;38.30;;;;;;5071620;28;20434;-59
2021/01/16 05:52:44;;;;;;;8.35;1.20;;;26.00;38.40;;;;;;5071767;28;20108;-61
2021/01/16 05:55:13;;;;;;;3.75;0.80;;;26.10;38.50;;;;;;5071889;28;20032;-57
2021/01/16 05:57:47;;;;;;;5.82;0.77;;;26.20;39.10;;;;;;5071136;28;20105;-57
2021/01/16 06:00:25;;;;;;;10.32;0.88;;;26.30;41.10;;;;;;5071347;28;20111;-58
2021/01/16 06:02:53;;;;;;;3.40;0.98;;;26.20;41.00;;;;;;5071670;28;20101;-54
2021/01/16 06:05:27;;;;;;;5.55;1.13;;;26.30;40.10;;;;;;5071430;28;20116;-57
2021/01/16 06:07:55;;;;;;;2.45;0.52;;;26.30;39.50;;;;;;5071331;28;20020;-59
2021/01/16 06:10:24;;;;;;;2.92;0.82;;;26.10;39.80;;;;;;5071174;28;20027;-52
2021/01/16 06:12:52;;;;;;;2.08;0.98;;;26.10;41.10;;;;;;5071323;28;20031;-59
2021/01/16 06:15:21;;;;;;;5.40;0.55;;;26.30;40.90;;;;;;5071421;28;20024;-60
2021/01/16 06:17:50;;;;;;;3.05;0.60;;;26.40;41.50;;;;;;5071345;28;20502;-59
2021/01/16 06:20:20;;;;;;;2.83;0.70;;;26.50;42.40;;;;;;5071126;28;20420;-58
2021/01/16 06:22:51;;;;;;;3.92;0.77;;;26.50;43.20;;;;;;5071196;28;20037;-55
2021/01/16 06:25:21;;;;;;;1.95;0.80;;;26.30;40.50;;;;;;5071468;28;20464;-60
2021/01/16 06:27:50;;;;;;;3.38;0.55;;;26.30;39.40;;;;;;5071142;28;20410;-58
2021/01/16 06:30:21;;;;;;;5.63;1.08;;;26.30;43.00;;;;;;5064665;28;20028;-58
2021/01/16 06:32:55;;;;;;;7.68;0.73;;;26.30;42.40;;;;;;5071093;28;20020;-59
2021/01/16 06:35:29;;;;;;;7.38;0.80;;;26.40;40.40;;;;;;5069873;28;20047;-59
2021/01/16 06:37:56;;;;;;;3.22;0.80;;;26.20;40.80;;;;;;5068987;28;20119;-59
2021/01/16 06:40:31;;;;;;;3.00;0.45;;;26.20;41.70;;;;;;5071221;28;20021;-56
2021/01/16 06:43:00;;;;;;;3.30;0.85;;;26.20;42.70;;;;;;5072463;28;20445;-57
2021/01/16 06:45:29;;;;;;;2.33;0.80;;;26.40;42.70;;;;;;5077632;28;20021;-60
2021/01/16 06:48:01;;;;;;;2.63;0.90;;;26.20;42.60;;;;;;5077779;28;20024;-59
2021/01/16 06:50:35;;;;;;;6.88;1.50;;;26.30;44.70;;;;;;5077553;28;20476;-54
2021/01/16 06:53:02;;;;;;;2.90;0.80;;;26.40;44.40;;;;;;5077980;28;20097;-59
2021/01/16 06:55:32;;;;;;;2.40;1.10;;;26.50;42.40;;;;;;5077344;28;20025;-55
2021/01/16 06:58:19;;;;;;;3.90;0.93;;;26.40;43.10;;;;;;5077900;28;20131;-60
2021/01/16 07:00:58;;;;;;;7.03;1.45;;;26.30;44.10;;;;;;5077597;28;20028;-60
2021/01/16 07:03:28;;;;;;;2.50;0.73;;;26.20;44.30;;;;;;5077338;28;20359;-59
2021/01/16 07:05:59;;;;;;;5.00;0.90;;;26.30;44.90;;;;;;5077635;28;20432;-57
2021/01/16 07:08:30;;;;;;;2.72;0.70;;;26.30;43.90;;;;;;5077283;28;20126;-57
2021/01/16 07:11:00;;;;;;;3.55;0.57;;;26.50;45.30;;;;;;5077356;28;20034;-58
2021/01/16 07:13:31;;;;;;;5.90;1.48;;;26.40;44.90;;;;;;5077190;28;20110;-56
2021/01/16 07:16:01;;;;;;;6.03;1.00;;;26.40;45.00;;;;;;5076233;28;20028;-55
2021/01/16 07:18:29;;;;;;;5.43;1.00;;;26.20;42.70;;;;;;5077159;28;20139;-59
2021/01/16 07:20:59;;;;;;;6.25;1.10;;;26.10;44.30;;;;;;5075915;28;20067;-56
2021/01/16 07:23:27;;;;;;;1.85;0.80;;;26.20;43.60;;;;;;5077852;28;20032;-56
2021/01/16 07:25:55;;;;;;;5.05;1.40;;;26.10;44.50;;;;;;5075845;28;20112;-57
2021/01/16 07:28:24;;;;;;;2.35;0.93;;;26.10;43.10;;;;;;5077816;28;20024;-58
2021/01/16 07:30:54;;;;;;;2.10;0.70;;;25.90;42.60;;;;;;5077212;28;20557;-60
2021/01/16 07:33:26;;;;;;;2.63;0.98;;;25.90;43.30;;;;;;5077411;28;20032;-55
2021/01/16 07:35:57;;;;;;;3.80;1.15;;;26.00;43.20;;;;;;5077656;28;20017;-58
2021/01/16 07:38:27;;;;;;;4.30;1.17;;;26.00;44.40;;;;;;5077683;28;20028;-57
2021/01/16 07:40:57;;;;;;;2.55;0.70;;;26.00;43.80;;;;;;5077312;28;20107;-60
2021/01/16 07:43:47;;;;;;;3.58;0.90;;;25.90;43.70;;;;;;5076959;28;20024;-62
2021/01/16 07:46:20;;;;;;;2.78;1.00;;;25.90;44.00;;;;;;5077401;28;20043;-61
2021/01/16 07:48:59;;;;;;;1.88;0.80;;;25.80;44.10;;;;;;5077309;28;20024;-65
2021/01/16 07:51:37;;;;;;;3.55;1.30;;;25.80;44.40;;;;;;5074414;28;20043;-62
2021/01/16 07:54:12;;;;;;;6.63;1.77;;;25.90;44.70;;;;;;5076303;28;20497;-57
2021/01/16 07:56:46;;;;;;;4.38;1.13;;;25.80;44.20;;;;;;5073378;28;20031;-57
2021/01/16 07:59:22;;;;;;;5.75;1.40;;;25.60;44.10;;;;;;5074073;28;20482;-61
2021/01/16 08:02:18;;;;;;;7.97;1.35;;;25.50;44.10;;;;;;5073911;28;20047;-64
2021/01/16 08:05:17;;;;;;;7.68;1.38;;;25.60;45.50;;;;;;5062989;28;20475;-62
2021/01/16 08:08:21;;;;;;;7.95;1.90;;;25.70;46.00;;;;;;5070034;28;20032;-61
2021/01/16 08:10:53;;;;;;;4.53;1.38;;;25.70;47.20;;;;;;5066800;28;20020;-56
2021/01/16 08:13:24;;;;;;;5.68;1.60;;;25.70;45.60;;;;;;5069823;28;20027;-59
2021/01/16 08:15:52;;;;;;;6.22;1.63;;;25.70;45.50;;;;;;5070915;28;20029;-56
2021/01/16 08:18:23;;;;;;;6.88;1.50;;;25.70;46.20;;;;;;5070717;28;20040;-58
2021/01/16 08:20:51;;;;;;;8.88;1.75;;;25.80;46.60;;;;;;5067197;28;20044;-57
2021/01/16 08:23:26;;;;;;;5.93;1.88;;;25.80;46.80;;;;;;5069308;28;20620;-54
2021/01/16 08:26:05;;;;;;;3.50;1.42;;;25.80;47.10;;;;;;5070928;28;20651;-60
2021/01/16 08:28:38;;;;;;;4.15;1.45;;;25.80;46.90;;;;;;5069107;28;20037;-59
2021/01/16 08:31:05;;;;;;;5.90;1.70;;;25.80;47.30;;;;;;5067436;28;20185;-50
2021/01/16 08:33:36;;;;;;;6.55;2.22;;;25.90;47.50;;;;;;5069923;28;20057;-57
2021/01/16 08:36:17;;;;;;;6.70;1.98;;;25.90;47.80;;;;;;5070973;28;20103;-57
2021/01/16 08:38:45;;;;;;;5.65;1.85;;;25.90;47.70;;;;;;5070226;28;20051;-61
2021/01/16 08:41:26;;;;;;;5.45;2.05;;;25.90;48.00;;;;;;5065006;28;20103;-60
2021/01/16 08:43:58;;;;;;;5.45;1.50;;;25.90;48.30;;;;;;5067264;28;20430;-54
2021/01/16 08:46:36;;;;;;;5.40;1.60;;;25.90;48.30;;;;;;5070325;28;20039;-60
2021/01/16 08:49:10;;;;;;;5.97;1.40;;;25.90;48.30;;;;;;5067651;28;20491;-61
2021/01/16 08:51:42;;;;;;;2.80;1.55;;;25.90;47.80;;;;;;5062336;28;20025;-62
2021/01/16 08:54:14;;;;;;;7.43;1.92;;;25.80;48.20;;;;;;5068615;28;20059;-62
2021/01/16 08:56:45;;;;;;;3.67;2.00;;;25.80;48.00;;;;;;5069888;28;20025;-62
2021/01/16 08:59:18;;;;;;;6.63;1.45;;;25.80;47.90;;;;;;5067395;28;20070;-63
2021/01/16 09:01:47;;;;;;;4.63;1.50;;;25.70;48.20;;;;;;5062650;28;20403;-62
2021/01/16 09:04:22;;;;;;;4.57;1.50;;;25.70;48.10;;;;;;5069857;28;20104;-61
2021/01/16 09:06:51;;;;;;;2.47;1.08;;;25.70;48.20;;;;;;5067273;28;20036;-64
2021/01/16 09:09:28;;;;;;;3.08;1.45;;;25.70;48.10;;;;;;5065112;28;20044;-64
2021/01/16 09:12:08;;;;;;;3.60;1.50;;;25.60;48.10;;;;;;5066001;28;20467;-60
2021/01/16 09:14:38;;;;;;;4.28;1.52;;;25.60;48.50;;;;;;5068742;28;20059;-60
2021/01/16 09:17:24;;;;;;;3.70;1.30;;;25.60;48.90;;;;;;5070181;28;20040;-62
2021/01/16 09:19:56;;;;;;;3.53;1.27;;;25.50;49.10;;;;;;5067840;28;20032;-54
2021/01/16 09:22:25;;;;;;;;;;;25.50;49.20;;;;;;5066093;28;20098;-55
2021/01/16 09:24:54;;;;;;;2.67;1.27;;;25.50;49.10;;;;;;5068530;28;19905;-58
2021/01/16 09:27:23;;;;;;;2.90;1.25;;;25.50;49.30;;;;;;5069612;28;20016;-57
2021/01/16 09:29:55;;;;;;;5.95;1.48;;;25.50;49.30;;;;;;5069818;28;20445;-51
2021/01/16 09:32:31;;;;;;;5.63;1.52;;;25.50;49.30;;;;;;5065707;28;20021;-54
2021/01/16 09:34:59;;;;;;;5.68;1.30;;;25.50;49.50;;;;;;5069190;28;20052;-55
2021/01/16 09:37:35;;;;;;;5.88;1.25;;;25.40;49.30;;;;;;5069542;28;20134;-63
2021/01/16 09:40:06;;;;;;;2.58;1.30;;;25.40;49.30;;;;;;5069332;28;20036;-60
2021/01/16 09:42:46;;;;;;;2.05;1.00;;;25.40;49.50;;;;;;5066085;28;20048;-56
2021/01/16 09:45:16;;;;;;;6.05;1.20;;;25.50;49.30;;;;;;5069537;28;20033;-55
2021/01/16 09:47:50;;;;;;;4.15;1.38;;;25.50;49.10;;;;;;5069199;28;20178;-61
2021/01/16 09:50:20;;;;;;;3.40;1.27;;;25.40;49.50;;;;;;5066001;28;20483;-58
2021/01/16 09:53:02;;;;;;;4.50;1.08;;;25.40;49.40;;;;;;5068533;28;20510;-64
2021/01/16 09:55:34;;;;;;;2.47;1.10;;;25.40;49.50;;;;;;5067803;28;20261;-62
2021/01/16 09:58:03;;;;;;;3.65;1.10;;;25.40;49.50;;;;;;5068743;28;20115;-57
2021/01/16 10:00:36;;;;;;;3.10;1.10;;;25.40;49.70;;;;;;5065240;28;20065;-57
2021/01/16 10:03:09;;;;;;;3.05;1.30;;;25.40;49.30;;;;;;5068363;28;20153;-48
2021/01/16 10:05:39;;;;;;;1.63;1.10;;;25.30;50.10;;;;;;5069198;28;20471;-60
2021/01/16 10:08:08;;;;;;;1.13;0.70;;;25.30;50.00;;;;;;5069328;28;20104;-51
2021/01/16 10:10:46;;;;;;;5.60;1.23;;;25.30;50.00;;;;;;5064637;28;20032;-60
2021/01/16 10:13:29;;;;;;;2.97;1.30;;;25.30;50.20;;;;;;5069685;28;20044;-53
2021/01/16 10:16:00;;;;;;;2.42;1.00;;;25.30;49.80;;;;;;5068888;28;20425;-56
2021/01/16 10:18:30;;;;;;;2.83;1.10;;;25.30;50.10;;;;;;5068198;28;20040;-52
2021/01/16 10:21:03;;;;;;;4.63;1.23;;;25.30;50.20;;;;;;5065284;28;20419;-56
2021/01/16 10:23:33;;;;;;;3.33;1.33;;;25.30;50.40;;;;;;5067641;28;20030;-60
2021/01/16 10:26:09;;;;;;;3.33;1.15;;;25.20;50.50;;;;;;5067946;28;20063;-51
2021/01/16 10:28:58;;;;;;;2.58;0.90;;;25.20;50.50;;;;;;5065331;28;20024;-62
2021/01/16 10:31:29;;;;;;;2.92;1.08;;;25.20;50.50;;;;;;5061920;28;20028;-56
2021/01/16 10:34:10;;;;;;;2.22;0.85;;;25.20;50.50;;;;;;5067640;28;20025;-55
2021/01/16 10:36:38;;;;;;;2.70;1.00;;;25.20;50.50;;;;;;5068153;28;20020;-57
2021/01/16 10:39:15;;;;;;;2.50;0.82;;;25.20;50.40;;;;;;5068849;28;20024;-60
2021/01/16 10:41:49;;;;;;;4.15;1.20;;;25.20;50.50;;;;;;5063978;28;20311;-56
2021/01/16 10:44:25;;;;;;;3.85;1.23;;;25.20;50.80;;;;;;5069001;28;20040;-59
2021/01/16 10:46:53;;;;;;;3.53;1.02;;;25.10;50.80;;;;;;5068200;28;20078;-58
2021/01/16 10:49:23;;;;;;;2.97;0.82;;;25.10;50.30;;;;;;5069131;28;20024;-60
2021/01/16 10:51:59;;;;;;;2.13;0.98;;;25.10;51.10;;;;;;5062040;28;20028;-64
2021/01/16 10:54:26;;;;;;;3.08;0.82;;;25.10;51.00;;;;;;5066761;28;20056;-54
2021/01/16 10:56:57;;;;;;;2.00;0.57;;;25.10;50.90;;;;;;5068115;28;20024;-58
2021/01/16 10:59:30;;;;;;;1.77;0.82;;;25.10;51.20;;;;;;5067959;28;20037;-60
2021/01/16 11:01:59;;;;;;;1.98;0.85;;;25.10;51.20;;;;;;5064264;28;20077;-55
2021/01/16 11:04:38;;;;;;;3.13;1.10;;;25.10;50.90;;;;;;5068635;28;20028;-64
2021/01/16 11:07:10;;;;;;;2.55;1.00;;;25.10;50.60;;;;;;5068659;28;20032;-62
2021/01/16 11:09:37;;;;;;;3.28;1.00;;;25.10;50.70;;;;;;5067197;28;20023;-60
2021/01/16 11:12:09;;;;;;;1.40;0.80;;;25.10;51.10;;;;;;5064856;28;20112;-57
2021/01/16 11:14:44;;;;;;;2.60;1.13;;;25.00;50.90;;;;;;5068542;28;20070;-58
2021/01/16 11:17:12;;;;;;;1.65;0.80;;;25.00;51.20;;;;;;5066310;28;20036;-60
2021/01/16 11:19:41;;;;;;;3.65;0.93;;;25.00;51.40;;;;;;5067943;28;20085;-57
2021/01/16 11:22:16;;;;;;;1.73;0.90;;;25.00;50.80;;;;;;5064103;28;20048;-54
2021/01/16 11:24:55;;;;;;;3.00;0.80;;;25.00;51.50;;;;;;5066201;28;20032;-56
2021/01/16 11:27:26;;;;;;;1.95;0.90;;;25.00;51.30;;;;;;5065332;28;20036;-56
2021/01/16 11:30:04;;;;;;;1.10;0.73;;;24.90;51.00;;;;;;5069408;28;20500;-52
2021/01/16 11:32:37;;;;;;;3.08;1.00;;;25.00;51.80;;;;;;5068871;28;20052;-56
2021/01/16 11:35:12;;;;;;;1.33;0.80;;;24.90;51.90;;;;;;5072436;28;20061;-55
2021/01/16 11:37:51;;;;;;;2.25;0.90;;;24.90;51.80;;;;;;5071405;28;20033;-60
2021/01/16 11:40:26;;;;;;;1.55;0.68;;;24.90;51.90;;;;;;5069635;28;20103;-59
2021/01/16 11:42:56;;;;;;;4.55;1.15;;;24.90;51.90;;;;;;5070233;28;20044;-59
2021/01/16 11:45:25;;;;;;;1.15;0.50;;;24.90;52.10;;;;;;5071276;28;20025;-57
2021/01/16 11:47:58;;;;;;;2.08;0.80;;;24.90;52.20;;;;;;5071660;28;20438;-61
2021/01/16 11:50:31;;;;;;;3.33;0.80;;;24.90;52.00;;;;;;5068082;28;20090;-62
2021/01/16 11:53:06;;;;;;;5.75;1.13;;;24.90;52.20;;;;;;5070862;28;20067;-60
2021/01/16 11:55:34;;;;;;;5.07;0.80;;;24.90;52.40;;;;;;5071194;28;20020;-56
2021/01/16 11:58:05;;;;;;;4.05;0.88;;;24.90;52.10;;;;;;5070392;28;20067;-53
2021/01/16 12:00:33;;;;;;;1.63;0.60;;;24.90;52.00;;;;;;5068284;28;20045;-58
2021/01/16 12:03:01;;;;;;;5.32;1.45;;;24.90;52.60;;;;;;5069375;28;20352;-55
2021/01/16 12:05:28;;;;;;;1.80;0.80;;;24.90;52.70;;;;;;5069328;28;20020;-58
2021/01/16 12:07:57;;;;;;;2.20;0.90;;;24.90;52.60;;;;;;5070880;28;20379;-60
2021/01/16 12:10:29;;;;;;;2.53;0.82;;;24.90;52.70;;;;;;5068823;28;20146;-57
2021/01/16 12:12:57;;;;;;;5.78;1.10;;;24.90;52.70;;;;;;5069082;28;20028;-59
2021/01/16 12:15:29;;;;;;;2.78;0.80;;;24.90;52.40;;;;;;5071190;28;20170;-55
2021/01/16 12:17:57;;;;;;;2.70;1.02;;;24.90;52.60;;;;;;5069576;28;20040;-57
2021/01/16 12:20:26;;;;;;;3.75;0.95;;;24.80;52.90;;;;;;5068084;28;20573;-60
2021/01/16 12:23:01;;;;;;;1.83;0.80;;;24.90;53.20;;;;;;5067878;28;20033;-60
2021/01/16 12:25:33;;;;;;;3.72;0.95;;;24.90;53.20;;;;;;5070628;28;20395;-59
2021/01/16 12:28:03;;;;;;;1.42;0.77;;;24.90;53.90;;;;;;5070115;28;20356;-53
2021/01/16 12:30:45;;;;;;;2.58;0.82;;;24.80;53.30;;;;;;5068593;28;21665;-61
2021/01/16 12:33:24;;;;;;;1.70;0.80;;;24.90;52.90;;;;;;5070806;28;20059;-54
2021/01/16 12:35:52;;;;;;;2.83;1.08;;;24.90;53.10;;;;;;5066781;28;20060;-62
2021/01/16 12:38:20;;;;;;;4.22;0.85;;;24.80;53.10;;;;;;5065882;28;20036;-65
2021/01/16 12:40:47;;;;;;;2.92;1.15;;;24.70;52.80;;;;;;5065825;28;20462;-65
2021/01/16 12:43:14;;;;;;;2.72;0.80;;;24.80;52.90;;;;;;5071044;28;20054;-62
2021/01/16 12:45:42;;;;;;;1.20;0.68;;;24.80;53.10;;;;;;5070422;28;20035;-62
2021/01/16 12:48:09;;;;;;;4.40;0.95;;;24.80;53.10;;;;;;5070625;28;20047;-63
2021/01/16 12:50:38;;;;;;;2.95;0.95;;;24.80;53.20;;;;;;5069684;28;20021;-62
2021/01/16 12:53:08;;;;;;;2.55;0.82;;;24.70;53.20;;;;;;5073837;28;20032;-63
2021/01/16 12:55:35;;;;;;;4.53;0.90;;;24.70;53.20;;;;;;5072364;28;20020;-61
2021/01/16 12:58:03;;;;;;;1.67;0.75;;;24.70;53.20;;;;;;5073263;28;20123;-62
2021/01/16 13:00:32;;;;;;;3.03;1.15;;;24.70;53.20;;;;;;5073786;28;20078;-63
2021/01/16 13:03:01;;;;;;;1.63;0.68;;;24.70;53.20;;;;;;5073635;28;20058;-58
2021/01/16 13:05:33;;;;;;;2.25;0.90;;;24.70;53.20;;;;;;5065732;28;20028;-65
2021/01/16 13:08:03;;;;;;;1.90;0.75;;;24.70;53.30;;;;;;5069821;28;20085;-64